Time;durP1;ratioP1;P1;durP2;ratioP2;P2;SDS_P1;SDS_P2;PMS_P1;PMS_P2;Temp;Humidity;BMP_temperature;BMP_pressure;BME280_temperature;BME280_humidity;BME280_pressure;Samples;Min_cycle;Max_cycle;Signal;HPM_P1;HPM_P2
2021/08/09 00:00:51;;;;;;;1.92;1.50;;;13.30;99.90;;;;;;1962076;73;21151;-78
2021/08/09 00:03:17;;;;;;;2.77;1.50;;;13.20;99.90;;;;;;1961910;73;21041;-78
2021/08/09 00:05:46;;;;;;;2.50;1.40;;;13.20;99.90;;;;;;1962124;73;21045;-78
2021/08/09 00:08:11;;;;;;;3.98;1.60;;;13.20;99.90;;;;;;1961794;73;21066;-77
2021/08/09 00:10:38;;;;;;;3.72;1.55;;;13.20;99.90;;;;;;1962022;73;21045;-78
2021/08/09 00:13:04;;;;;;;3.67;1.60;;;13.10;99.90;;;;;;1961967;73;21045;-78
2021/08/09 00:15:30;;;;;;;3.12;1.62;;;13.20;99.90;;;;;;1961997;73;21048;-77
2021/08/09 00:17:56;;;;;;;4.62;1.57;;;13.10;99.90;;;;;;1961878;73;21124;-78
2021/08/09 00:20:24;;;;;;;4.83;1.80;;;13.10;99.90;;;;;;1962086;73;21057;-77
2021/08/09 00:22:50;;;;;;;5.62;2.27;;;13.20;99.90;;;;;;1962217;73;21462;-77
2021/08/09 00:25:16;;;;;;;3.62;1.72;;;13.20;99.90;;;;;;1962090;73;21563;-78
2021/08/09 00:27:42;;;;;;;4.55;1.60;;;13.20;99.90;;;;;;1961986;73;21465;-78
2021/08/09 00:30:08;;;;;;;2.92;1.77;;;13.10;99.90;;;;;;1961946;73;21511;-77
2021/08/09 00:32:34;;;;;;;4.10;1.90;;;13.10;99.90;;;;;;1962157;73;21543;-78
2021/08/09 00:35:00;;;;;;;3.22;2.02;;;13.10;99.90;;;;;;1962012;73;21053;-78
2021/08/09 00:37:28;;;;;;;6.12;2.10;;;13.10;99.90;;;;;;1962090;73;21049;-77
2021/08/09 00:39:54;;;;;;;4.95;1.57;;;13.10;99.90;;;;;;1961887;73;21149;-78
2021/08/09 00:42:20;;;;;;;3.55;2.20;;;13.10;99.90;;;;;;1961947;73;21049;-77
2021/08/09 00:44:46;;;;;;;5.80;2.10;;;13.10;99.90;;;;;;1962182;73;21025;-78
2021/08/09 00:47:13;;;;;;;3.20;1.75;;;13.00;99.90;;;;;;1961923;73;21524;-78
2021/08/09 00:49:39;;;;;;;4.03;2.00;;;13.10;99.90;;;;;;1961914;73;21462;-78
2021/08/09 00:52:05;;;;;;;2.52;1.72;;;13.00;99.90;;;;;;1962072;73;21508;-78
2021/08/09 00:54:31;;;;;;;3.15;1.75;;;13.00;99.90;;;;;;1961948;73;21461;-78
2021/08/09 00:56:57;;;;;;;2.12;1.82;;;12.90;99.90;;;;;;1961948;73;21422;-78
2021/08/09 00:59:23;;;;;;;3.85;1.77;;;12.90;99.90;;;;;;1961965;73;21450;-77
2021/08/09 01:01:49;;;;;;;3.33;2.00;;;12.90;99.90;;;;;;1962019;73;21041;-78
2021/08/09 01:04:15;;;;;;;3.33;2.05;;;12.80;99.90;;;;;;1961997;73;21037;-78
2021/08/09 01:06:42;;;;;;;2.58;1.60;;;12.80;99.90;;;;;;1962010;73;21013;-78
2021/08/09 01:09:08;;;;;;;2.98;1.67;;;12.70;99.90;;;;;;1962013;73;21041;-78
2021/08/09 01:11:34;;;;;;;3.02;1.90;;;12.80;99.90;;;;;;1962004;73;21037;-78
2021/08/09 01:14:00;;;;;;;2.55;1.50;;;12.60;99.90;;;;;;1961847;73;21024;-78
2021/08/09 01:16:26;;;;;;;1.50;1.40;;;12.60;99.90;;;;;;1962092;73;21014;-78
2021/08/09 01:18:52;;;;;;;4.12;1.98;;;12.70;99.90;;;;;;1961995;73;21107;-78
2021/08/09 01:21:18;;;;;;;2.22;1.65;;;12.70;99.90;;;;;;1961966;73;21037;-77
2021/08/09 01:23:45;;;;;;;3.75;1.65;;;12.60;99.90;;;;;;1960615;73;21116;-78
2021/08/09 01:26:11;;;;;;;3.00;1.80;;;12.60;99.90;;;;;;1956786;73;21494;-77
2021/08/09 01:28:39;;;;;;;2.70;1.57;;;12.60;99.90;;;;;;1960303;73;21049;-78
2021/08/09 01:31:05;;;;;;;3.85;1.72;;;12.50;99.90;;;;;;1961990;73;21142;-77
2021/08/09 01:33:31;;;;;;;2.62;1.70;;;12.50;99.90;;;;;;1961939;73;21056;-77
2021/08/09 01:35:57;;;;;;;2.45;1.55;;;12.40;99.90;;;;;;1962128;73;21038;-78
2021/08/09 01:38:23;;;;;;;4.75;2.00;;;12.40;99.90;;;;;;1960663;73;21033;-77
2021/08/09 01:40:49;;;;;;;1.70;1.42;;;12.30;99.90;;;;;;1962227;73;21045;-78
2021/08/09 01:43:16;;;;;;;2.67;1.50;;;12.10;99.90;;;;;;1962020;73;21134;-78
2021/08/09 01:45:42;;;;;;;2.52;1.50;;;12.10;99.90;;;;;;1962171;73;21053;-78
2021/08/09 01:48:09;;;;;;;1.42;1.32;;;12.20;99.90;;;;;;1962018;73;21022;-77
2021/08/09 01:50:35;;;;;;;3.25;1.52;;;12.20;99.90;;;;;;1962277;73;21142;-78
2021/08/09 01:53:01;;;;;;;3.60;1.60;;;12.10;99.90;;;;;;1962803;73;21114;-77
2021/08/09 01:55:27;;;;;;;1.50;1.40;;;12.00;99.90;;;;;;1965766;73;21049;-77
2021/08/09 01:57:53;;;;;;;1.70;1.22;;;12.10;99.90;;;;;;1965593;73;21103;-78
2021/08/09 02:00:20;;;;;;;1.67;1.50;;;12.10;99.90;;;;;;1965522;73;21031;-77
2021/08/09 02:02:48;;;;;;;3.40;1.27;;;12.10;99.90;;;;;;1962461;73;21090;-77
2021/08/09 02:05:13;;;;;;;2.40;1.60;;;12.10;99.90;;;;;;1961983;73;21132;-77
2021/08/09 02:07:40;;;;;;;3.52;1.60;;;12.10;99.90;;;;;;1962209;73;21103;-77
2021/08/09 02:10:06;;;;;;;3.70;1.60;;;12.00;99.90;;;;;;1962017;73;21041;-77
2021/08/09 02:12:32;;;;;;;2.15;1.47;;;12.00;99.90;;;;;;1962196;73;21114;-77
2021/08/09 02:14:58;;;;;;;2.02;1.15;;;11.90;99.90;;;;;;1962306;73;21057;-77
2021/08/09 02:17:24;;;;;;;2.50;1.52;;;11.90;99.90;;;;;;1962187;73;21158;-77
2021/08/09 02:19:50;;;;;;;3.40;1.70;;;11.90;99.90;;;;;;1961987;73;20990;-77
2021/08/09 02:22:16;;;;;;;3.25;1.42;;;12.00;99.90;;;;;;1962085;73;21433;-77
2021/08/09 02:24:43;;;;;;;3.95;1.55;;;12.10;99.90;;;;;;1962054;73;21614;-77
2021/08/09 02:27:09;;;;;;;1.50;1.40;;;12.10;99.90;;;;;;1962076;73;21425;-77
2021/08/09 02:29:35;;;;;;;2.15;1.22;;;12.10;99.90;;;;;;1962168;73;21461;-77
2021/08/09 02:32:01;;;;;;;2.02;1.45;;;12.00;99.90;;;;;;1962069;73;21469;-77
2021/08/09 02:34:27;;;;;;;6.47;1.77;;;12.00;99.90;;;;;;1962130;73;21551;-77
2021/08/09 02:36:53;;;;;;;4.87;1.40;;;12.00;99.90;;;;;;1962054;73;21466;-77
2021/08/09 02:39:19;;;;;;;2.85;1.60;;;12.00;99.90;;;;;;1962051;73;21116;-77
2021/08/09 02:41:45;;;;;;;5.12;1.92;;;11.90;99.90;;;;;;1962127;73;21029;-77
2021/08/09 02:44:12;;;;;;;2.17;1.32;;;11.90;99.90;;;;;;1962157;73;21049;-77
2021/08/09 02:46:38;;;;;;;1.67;1.52;;;11.90;99.90;;;;;;1962114;73;21205;-77
2021/08/09 02:49:04;;;;;;;3.35;1.77;;;11.80;99.90;;;;;;1961499;73;21049;-77
2021/08/09 02:51:30;;;;;;;2.67;1.82;;;11.80;99.90;;;;;;1962147;73;21038;-77
2021/08/09 02:53:56;;;;;;;3.83;1.75;;;11.80;99.90;;;;;;1962162;73;21111;-77
2021/08/09 02:56:22;;;;;;;4.55;1.65;;;11.90;99.90;;;;;;1923630;73;21033;-77
2021/08/09 02:58:48;;;;;;;4.40;1.50;;;11.80;99.90;;;;;;1962180;73;21049;-77
2021/08/09 03:01:14;;;;;;;3.27;1.35;;;11.70;99.90;;;;;;1962061;73;21043;-76
2021/08/09 03:03:41;;;;;;;1.55;1.45;;;11.80;99.90;;;;;;1959457;73;21053;-77
2021/08/09 03:06:07;;;;;;;2.87;1.75;;;11.80;99.90;;;;;;1959867;73;21130;-77
2021/08/09 03:08:33;;;;;;;2.83;1.60;;;11.60;99.90;;;;;;1961997;73;21053;-77
2021/08/09 03:10:59;;;;;;;2.05;1.65;;;11.70;99.90;;;;;;1962225;73;21445;-77
2021/08/09 03:13:25;;;;;;;5.37;1.90;;;11.60;99.90;;;;;;1962169;73;21637;-77
2021/08/09 03:15:51;;;;;;;3.85;1.60;;;11.60;99.90;;;;;;1962086;73;21014;-77
2021/08/09 03:18:18;;;;;;;1.60;1.50;;;11.50;99.90;;;;;;1963899;73;21167;-78
2021/08/09 03:20:44;;;;;;;1.85;1.62;;;11.50;99.90;;;;;;1965810;73;21026;-77
2021/08/09 03:23:10;;;;;;;3.75;1.77;;;11.40;99.90;;;;;;1965922;73;21077;-78
2021/08/09 03:25:36;;;;;;;5.95;1.70;;;11.50;99.90;;;;;;1965524;73;21153;-77
2021/08/09 03:28:02;;;;;;;2.45;1.35;;;11.40;99.90;;;;;;1962062;73;21061;-78
2021/08/09 03:30:29;;;;;;;2.70;1.42;;;11.40;99.90;;;;;;1962025;73;21131;-77
2021/08/09 03:32:57;;;;;;;5.75;1.70;;;11.40;99.90;;;;;;1962017;73;21084;-78
2021/08/09 03:35:24;;;;;;;3.40;1.50;;;11.40;99.90;;;;;;1961947;73;21501;-78
2021/08/09 03:37:50;;;;;;;2.98;1.62;;;11.40;99.90;;;;;;1962099;73;21085;-78
2021/08/09 03:40:16;;;;;;;2.37;2.00;;;11.40;99.90;;;;;;1962014;73;21053;-78
2021/08/09 03:42:42;;;;;;;5.28;1.65;;;11.40;99.90;;;;;;1962027;73;21049;-77
2021/08/09 03:45:08;;;;;;;2.70;1.65;;;11.50;99.90;;;;;;1962012;73;21057;-77
2021/08/09 03:47:34;;;;;;;6.53;1.85;;;11.40;99.90;;;;;;1962060;73;21041;-78
2021/08/09 03:50:00;;;;;;;2.45;1.62;;;11.40;99.90;;;;;;1962070;73;21049;-78
2021/08/09 03:52:26;;;;;;;2.15;1.67;;;11.30;99.90;;;;;;1962020;73;21065;-78
2021/08/09 03:54:53;;;;;;;1.98;1.60;;;11.30;99.90;;;;;;1962019;73;21065;-77
2021/08/09 03:57:19;;;;;;;2.55;1.60;;;11.30;99.90;;;;;;1962150;73;21452;-78
2021/08/09 03:59:45;;;;;;;3.12;2.20;;;11.40;99.90;;;;;;1961932;73;21473;-78
2021/08/09 04:02:15;;;;;;;5.00;2.15;;;11.40;99.90;;;;;;1961963;73;21425;-78
2021/08/09 04:04:39;;;;;;;3.55;2.08;;;11.40;99.90;;;;;;1961478;73;21139;-77
2021/08/09 04:07:05;;;;;;;3.17;2.35;;;11.40;99.90;;;;;;1962303;73;21365;-77
2021/08/09 04:09:36;;;;;;;4.00;2.17;;;11.50;99.90;;;;;;1962375;73;21017;-77
2021/08/09 04:12:00;;;;;;;2.83;2.27;;;11.50;99.90;;;;;;1961183;73;21131;-78
2021/08/09 04:14:26;;;;;;;6.03;1.57;;;11.50;99.90;;;;;;1962311;73;21069;-78
2021/08/09 04:16:52;;;;;;;3.52;1.98;;;11.50;99.90;;;;;;1962071;73;21026;-78
2021/08/09 04:19:19;;;;;;;3.83;1.80;;;11.50;99.90;;;;;;1962059;73;21053;-78
2021/08/09 04:21:45;;;;;;;2.80;2.05;;;11.50;99.90;;;;;;1962042;73;21050;-78
2021/08/09 04:24:11;;;;;;;1.98;1.72;;;11.50;99.90;;;;;;1962039;73;21074;-78
2021/08/09 04:26:37;;;;;;;5.83;2.05;;;11.60;99.90;;;;;;1962102;73;21053;-78
2021/08/09 04:29:03;;;;;;;3.58;1.35;;;11.60;99.90;;;;;;1962103;73;21041;-78
2021/08/09 04:31:29;;;;;;;4.15;1.50;;;11.70;99.90;;;;;;1962119;73;21162;-78
2021/08/09 04:33:55;;;;;;;7.30;1.90;;;11.70;99.90;;;;;;1962108;73;21108;-78
2021/08/09 04:36:21;;;;;;;5.42;1.90;;;11.60;99.90;;;;;;1961975;73;21048;-78
2021/08/09 04:38:48;;;;;;;4.03;1.82;;;11.60;99.90;;;;;;1962107;73;21111;-78
2021/08/09 04:41:14;;;;;;;2.45;1.72;;;11.60;99.90;;;;;;1962024;73;21111;-78
2021/08/09 04:43:41;;;;;;;5.37;2.05;;;11.70;99.90;;;;;;1962099;73;21055;-78
2021/08/09 04:46:07;;;;;;;3.20;1.90;;;11.70;99.90;;;;;;1961897;73;21090;-78
2021/08/09 04:48:33;;;;;;;2.45;1.77;;;11.80;99.90;;;;;;1962082;73;21118;-78
2021/08/09 04:50:59;;;;;;;2.27;1.47;;;11.90;99.90;;;;;;1961904;73;21077;-78
2021/08/09 04:53:25;;;;;;;4.60;1.80;;;11.90;99.90;;;;;;1962050;73;21100;-77
2021/08/09 04:55:51;;;;;;;5.00;1.92;;;11.90;99.90;;;;;;1962091;73;21030;-76
2021/08/09 04:58:18;;;;;;;4.55;2.05;;;11.90;99.90;;;;;;1962208;73;21126;-77
2021/08/09 05:00:44;;;;;;;7.15;2.25;;;11.90;99.90;;;;;;1962204;73;21119;-77
2021/08/09 05:03:10;;;;;;;3.37;1.85;;;11.90;99.90;;;;;;1962156;73;21049;-77
2021/08/09 05:05:36;;;;;;;1.70;1.60;;;11.90;99.90;;;;;;1962144;73;21069;-77
2021/08/09 05:08:02;;;;;;;1.42;1.32;;;12.00;99.90;;;;;;1961823;73;21086;-77
2021/08/09 05:10:28;;;;;;;3.72;1.70;;;12.10;99.90;;;;;;1962038;73;21114;-76
2021/08/09 05:12:54;;;;;;;3.12;2.12;;;12.00;99.90;;;;;;1961808;73;21093;-77
2021/08/09 05:15:27;;;;;;;2.65;1.57;;;12.10;99.90;;;;;;1961996;73;21030;-77
2021/08/09 05:17:48;;;;;;;2.00;1.72;;;12.10;99.90;;;;;;1960042;73;21070;-77
2021/08/09 05:20:14;;;;;;;5.08;1.85;;;12.00;99.90;;;;;;1961935;73;21130;-77
2021/08/09 05:22:40;;;;;;;4.70;1.72;;;12.00;99.90;;;;;;1961942;73;21119;-76
2021/08/09 05:25:11;;;;;;;9.10;1.80;;;12.00;99.90;;;;;;1961909;73;21029;-76
2021/08/09 05:27:34;;;;;;;3.37;1.98;;;12.00;99.90;;;;;;1960693;73;21066;-77
2021/08/09 05:30:01;;;;;;;2.10;1.60;;;12.10;99.90;;;;;;1961935;73;21045;-76
2021/08/09 05:32:27;;;;;;;2.02;1.80;;;12.10;99.90;;;;;;1962032;73;21177;-78
2021/08/09 05:34:53;;;;;;;2.62;1.50;;;12.20;99.90;;;;;;1961953;73;21033;-76
2021/08/09 05:37:19;;;;;;;3.47;1.77;;;12.20;99.90;;;;;;1961900;73;21115;-76
2021/08/09 05:39:45;;;;;;;4.90;2.08;;;12.40;99.90;;;;;;1961908;73;21045;-77
2021/08/09 05:42:11;;;;;;;2.47;1.82;;;12.30;99.90;;;;;;1961970;73;21017;-76
2021/08/09 05:44:37;;;;;;;4.20;1.47;;;12.40;99.90;;;;;;1962059;73;21029;-77
2021/08/09 05:47:03;;;;;;;2.80;1.90;;;12.40;99.90;;;;;;1961988;73;21053;-76
2021/08/09 05:49:29;;;;;;;2.70;2.08;;;12.50;99.90;;;;;;1962028;73;21119;-78
2021/08/09 05:51:56;;;;;;;3.65;2.10;;;12.50;99.90;;;;;;1962024;73;21100;-78
2021/08/09 05:54:22;;;;;;;4.20;2.25;;;12.60;99.90;;;;;;1961999;73;21033;-78
2021/08/09 05:56:48;;;;;;;4.42;2.20;;;12.70;99.90;;;;;;1961937;73;21049;-76
2021/08/09 05:59:14;;;;;;;4.00;1.85;;;12.80;99.90;;;;;;1961890;73;21049;-76
2021/08/09 06:01:40;;;;;;;5.35;2.45;;;13.00;99.90;;;;;;1961872;73;21057;-77
2021/08/09 06:04:06;;;;;;;5.85;2.02;;;13.10;99.90;;;;;;1961954;73;21073;-76
2021/08/09 06:06:32;;;;;;;6.05;2.30;;;13.20;99.90;;;;;;1961855;73;21126;-77
2021/08/09 06:08:58;;;;;;;3.95;1.80;;;13.40;99.90;;;;;;1961909;73;21061;-79
2021/08/09 06:11:25;;;;;;;3.58;2.05;;;13.50;99.90;;;;;;1961867;73;21556;-78
2021/08/09 06:13:51;;;;;;;2.22;1.67;;;13.50;99.90;;;;;;1961895;73;21095;-79
2021/08/09 06:16:18;;;;;;;4.78;1.80;;;13.70;99.90;;;;;;1961908;73;21041;-78
2021/08/09 06:18:44;;;;;;;9.75;2.72;;;13.80;99.90;;;;;;1961843;73;21123;-78
2021/08/09 06:21:10;;;;;;;3.92;2.00;;;13.80;99.90;;;;;;1961959;73;21060;-79
2021/08/09 06:23:36;;;;;;;1.60;1.35;;;13.90;99.90;;;;;;1962032;73;21550;-76
2021/08/09 06:26:02;;;;;;;7.10;2.85;;;14.10;99.90;;;;;;1961958;73;21513;-76
2021/08/09 06:28:29;;;;;;;4.08;1.60;;;14.20;99.90;;;;;;1962146;73;20994;-79
2021/08/09 06:30:55;;;;;;;4.12;1.87;;;14.30;99.90;;;;;;1960239;73;21057;-79
2021/08/09 06:33:21;;;;;;;2.15;1.65;;;14.50;99.90;;;;;;1957875;73;21045;-78
2021/08/09 06:35:47;;;;;;;2.35;1.25;;;14.50;99.90;;;;;;1955845;73;21065;-78
2021/08/09 06:38:13;;;;;;;2.35;1.80;;;14.60;99.90;;;;;;1961640;73;21018;-78
2021/08/09 06:40:39;;;;;;;2.55;1.45;;;14.80;99.90;;;;;;1962074;73;21045;-78
2021/08/09 06:43:05;;;;;;;3.72;1.55;;;14.80;99.90;;;;;;1961910;73;21045;-78
2021/08/09 06:45:31;;;;;;;4.22;1.42;;;15.00;99.90;;;;;;1961957;73;21021;-78
2021/08/09 06:47:58;;;;;;;4.67;1.50;;;15.20;99.90;;;;;;1961109;73;21082;-78
2021/08/09 06:50:24;;;;;;;8.28;1.50;;;15.50;99.90;;;;;;1957857;73;21045;-78
2021/08/09 06:52:50;;;;;;;3.65;1.50;;;15.50;99.90;;;;;;1961807;73;21041;-78
2021/08/09 06:55:16;;;;;;;2.10;1.15;;;15.70;99.90;;;;;;1962049;73;21104;-78
2021/08/09 06:57:42;;;;;;;5.92;1.92;;;15.80;99.90;;;;;;1961963;73;21018;-78
2021/08/09 07:00:08;;;;;;;18.77;2.77;;;15.90;99.90;;;;;;1962223;73;21115;-79
2021/08/09 07:02:34;;;;;;;3.87;1.80;;;15.90;99.90;;;;;;1961950;73;21118;-78
2021/08/09 07:05:00;;;;;;;8.70;2.00;;;16.00;99.90;;;;;;1962108;73;21122;-78
2021/08/09 07:07:27;;;;;;;6.60;1.40;;;16.10;99.90;;;;;;1961885;73;21134;-78
2021/08/09 07:09:53;;;;;;;2.95;1.82;;;16.20;99.90;;;;;;1962138;73;21486;-78
2021/08/09 07:12:19;;;;;;;1.80;1.20;;;16.20;99.90;;;;;;1962161;73;21402;-78
2021/08/09 07:14:45;;;;;;;3.72;1.50;;;16.40;99.90;;;;;;1962010;73;21542;-78
2021/08/09 07:17:11;;;;;;;4.00;1.47;;;16.70;99.90;;;;;;1962142;73;21472;-79
2021/08/09 07:19:38;;;;;;;2.77;1.30;;;16.70;99.90;;;;;;1961935;73;21477;-79
2021/08/09 07:22:04;;;;;;;2.05;1.40;;;16.50;99.90;;;;;;1962254;73;21053;-79
2021/08/09 07:24:30;;;;;;;4.00;1.52;;;16.80;99.90;;;;;;1962645;73;21107;-79
2021/08/09 07:26:56;;;;;;;3.72;1.57;;;17.30;99.90;;;;;;1962205;73;21065;-79
2021/08/09 07:29:22;;;;;;;3.65;1.67;;;17.80;99.90;;;;;;1961986;73;21106;-79
2021/08/09 07:31:48;;;;;;;2.17;1.32;;;17.90;99.90;;;;;;1961962;73;21150;-78
2021/08/09 07:34:15;;;;;;;7.25;1.60;;;17.60;99.90;;;;;;1962069;73;21115;-78
2021/08/09 07:36:41;;;;;;;2.62;1.30;;;18.10;99.90;;;;;;1961951;73;21018;-78
2021/08/09 07:39:07;;;;;;;2.80;1.10;;;19.00;99.90;;;;;;1962117;73;21183;-78
2021/08/09 07:41:33;;;;;;;4.37;1.15;;;19.60;99.90;;;;;;1962019;73;21052;-78
2021/08/09 07:43:59;;;;;;;2.80;1.15;;;20.50;99.90;;;;;;1962139;73;21056;-79
2021/08/09 07:46:27;;;;;;;2.65;1.20;;;20.80;99.90;;;;;;1961952;73;21018;-79
2021/08/09 07:48:53;;;;;;;129.60;15.60;;;21.10;99.90;;;;;;1962141;73;21071;-79
2021/08/09 07:51:19;;;;;;;135.22;16.32;;;21.50;99.90;;;;;;1962246;73;21107;-79
2021/08/09 07:53:45;;;;;;;2.00;1.17;;;21.10;99.90;;;;;;1962124;73;21021;-79
2021/08/09 07:56:11;;;;;;;3.65;1.12;;;21.40;99.90;;;;;;1962285;73;21095;-78
2021/08/09 07:58:37;;;;;;;3.90;1.30;;;21.30;99.90;;;;;;1962251;73;21107;-79
2021/08/09 08:01:04;;;;;;;3.15;1.40;;;20.90;99.90;;;;;;1961887;73;21128;-79
2021/08/09 08:03:30;;;;;;;4.53;2.50;;;21.10;99.90;;;;;;1962079;73;21041;-78
2021/08/09 08:05:56;;;;;;;3.42;1.30;;;21.00;99.90;;;;;;1962074;73;21122;-79
2021/08/09 08:08:22;;;;;;;2.62;1.20;;;20.60;99.90;;;;;;1962070;73;21013;-79
2021/08/09 08:10:48;;;;;;;7.75;1.12;;;21.00;99.90;;;;;;1962023;73;21053;-78
2021/08/09 08:13:14;;;;;;;8.20;1.47;;;21.40;99.90;;;;;;1962143;73;21040;-79
2021/08/09 08:15:40;;;;;;;2.92;1.27;;;21.40;99.90;;;;;;1962032;73;21216;-79
2021/08/09 08:18:06;;;;;;;5.62;1.45;;;22.20;99.90;;;;;;1961970;73;21162;-79
2021/08/09 08:20:33;;;;;;;2.85;1.00;;;22.90;99.90;;;;;;1962043;73;21118;-79
2021/08/09 08:23:02;;;;;;;8.83;1.32;;;23.20;99.90;;;;;;1962065;73;21041;-79
2021/08/09 08:25:27;;;;;;;6.20;1.35;;;23.30;99.90;;;;;;1961590;73;21599;-79
2021/08/09 08:27:53;;;;;;;1.82;1.00;;;22.90;99.90;;;;;;1961914;73;21103;-79
2021/08/09 08:30:20;;;;;;;2.12;1.27;;;22.50;99.90;;;;;;1962210;73;21041;-79
2021/08/09 08:32:46;;;;;;;2.65;0.95;;;22.10;99.90;;;;;;1962137;73;21111;-79
2021/08/09 08:35:12;;;;;;;3.02;1.17;;;22.40;99.90;;;;;;1961878;73;21053;-79
2021/08/09 08:37:38;;;;;;;4.00;1.00;;;22.20;99.90;;;;;;1958208;73;21461;-79
2021/08/09 08:40:05;;;;;;;1.52;1.00;;;22.50;99.90;;;;;;1958807;73;21500;-80
2021/08/09 08:42:31;;;;;;;3.60;0.98;;;23.00;99.90;;;;;;1962150;73;21386;-79
2021/08/09 08:44:57;;;;;;;5.53;1.07;;;23.20;99.90;;;;;;1960762;73;21191;-80
2021/08/09 08:47:24;;;;;;;1.42;0.85;;;23.20;99.90;;;;;;1958134;73;21457;-80
2021/08/09 08:49:50;;;;;;;2.62;1.10;;;23.10;99.90;;;;;;1958053;73;21152;-80
2021/08/09 08:52:16;;;;;;;2.05;0.95;;;23.10;99.90;;;;;;1957591;73;21085;-80
2021/08/09 08:54:42;;;;;;;3.80;0.93;;;23.10;99.90;;;;;;1961300;73;21110;-80
2021/08/09 08:57:08;;;;;;;2.72;1.40;;;22.50;99.90;;;;;;1959896;73;21119;-80
2021/08/09 08:59:34;;;;;;;1.65;1.17;;;22.50;99.90;;;;;;1958337;73;21114;-80
2021/08/09 09:02:01;;;;;;;2.95;1.00;;;22.80;99.90;;;;;;1959471;73;21095;-80
2021/08/09 09:04:27;;;;;;;2.15;0.90;;;23.10;99.90;;;;;;1961883;73;21092;-79
2021/08/09 09:06:53;;;;;;;2.35;0.98;;;23.20;99.90;;;;;;1962125;73;21590;-79
2021/08/09 09:09:19;;;;;;;2.17;0.98;;;23.50;99.90;;;;;;1961893;73;21058;-80
2021/08/09 09:11:46;;;;;;;1.67;0.90;;;23.40;99.90;;;;;;1962033;73;21053;-79
2021/08/09 09:14:12;;;;;;;2.75;1.00;;;23.80;99.90;;;;;;1962126;73;21045;-80
2021/08/09 09:16:40;;;;;;;3.12;0.90;;;24.10;99.90;;;;;;1963704;73;21307;-78
2021/08/09 09:19:06;;;;;;;0.93;0.65;;;23.90;99.90;;;;;;1965657;73;21116;-78
2021/08/09 09:21:32;;;;;;;1.35;0.80;;;24.10;99.90;;;;;;1964312;72;21026;-77
2021/08/09 09:23:58;;;;;;;3.27;0.75;;;24.00;99.90;;;;;;1923736;73;21095;-77
2021/08/09 09:26:24;;;;;;;1.52;0.70;;;24.00;99.90;;;;;;1962131;73;21041;-78
2021/08/09 09:28:51;;;;;;;2.20;0.95;;;24.20;99.90;;;;;;1962136;73;21102;-78
2021/08/09 09:31:17;;;;;;;2.80;0.57;;;24.20;99.90;;;;;;1962145;73;21605;-79
2021/08/09 09:33:43;;;;;;;17.20;2.10;;;23.90;99.90;;;;;;1962056;73;21461;-79
2021/08/09 09:36:09;;;;;;;31.25;4.15;;;24.20;99.90;;;;;;1961988;73;21429;-78
2021/08/09 09:38:35;;;;;;;5.33;0.80;;;24.30;99.90;;;;;;1961943;73;21503;-78
2021/08/09 09:41:01;;;;;;;2.42;0.85;;;24.30;99.90;;;;;;1962035;73;21457;-80
2021/08/09 09:43:28;;;;;;;2.02;0.65;;;24.60;99.90;;;;;;1962160;73;21453;-79
2021/08/09 09:45:54;;;;;;;1.12;0.78;;;24.50;99.90;;;;;;1962159;73;21451;-79
2021/08/09 09:48:20;;;;;;;1.65;0.72;;;24.40;99.90;;;;;;1993185;72;21037;-79
2021/08/09 09:50:46;;;;;;;2.12;0.75;;;24.00;99.90;;;;;;1997511;72;21045;-79
2021/08/09 09:53:12;;;;;;;1.05;0.60;;;24.10;99.90;;;;;;1997521;72;21099;-78
2021/08/09 09:55:38;;;;;;;1.20;0.80;;;24.60;99.90;;;;;;1997382;72;21208;-80
2021/08/09 10:00:40;;;;;;;2.05;0.80;;;24.60;99.90;;;;;;1948082;72;21045;-79
2021/08/09 10:03:06;;;;;;;0.60;0.60;;;24.50;99.90;;;;;;1997470;72;21108;-79
2021/08/09 10:05:32;;;;;;;1.75;0.57;;;24.90;99.90;;;;;;1997565;72;21071;-80
2021/08/09 10:07:59;;;;;;;1.00;0.70;;;25.00;99.90;;;;;;1998992;72;21037;-79
2021/08/09 10:10:25;;;;;;;1.25;0.70;;;24.60;99.90;;;;;;1998718;72;21014;-79
2021/08/09 10:12:52;;;;;;;1.12;0.70;;;24.50;99.90;;;;;;1998196;72;21033;-79
2021/08/09 10:15:23;;;;;;;1.15;0.65;;;24.70;99.90;;;;;;1997377;72;21045;-79
2021/08/09 10:17:46;;;;;;;1.55;0.80;;;24.80;99.90;;;;;;1995308;72;21033;-80
2021/08/09 10:20:12;;;;;;;1.90;0.75;;;24.90;99.90;;;;;;1997421;72;21030;-79
2021/08/09 10:22:39;;;;;;;4.05;1.00;;;24.60;99.90;;;;;;1997508;72;21015;-79
2021/08/09 10:25:06;;;;;;;2.22;0.88;;;24.20;99.90;;;;;;1997365;72;21123;-79
2021/08/09 10:27:32;;;;;;;1.75;0.65;;;24.10;99.90;;;;;;1997539;72;21041;-79
2021/08/09 10:29:58;;;;;;;1.45;0.70;;;24.20;99.90;;;;;;1997310;72;21038;-78
2021/08/09 10:32:24;;;;;;;1.37;0.72;;;24.40;99.90;;;;;;1997519;72;21104;-79
2021/08/09 10:34:51;;;;;;;0.88;0.55;;;24.80;99.90;;;;;;1997348;72;21037;-78
2021/08/09 10:37:17;;;;;;;0.95;0.57;;;24.50;99.90;;;;;;1997375;72;21077;-79
2021/08/09 10:39:43;;;;;;;4.12;0.90;;;24.70;99.90;;;;;;1997344;72;21050;-79
2021/08/09 10:42:09;;;;;;;1.72;0.90;;;25.10;99.90;;;;;;1997547;72;21045;-78
2021/08/09 10:44:35;;;;;;;5.90;1.20;;;25.10;99.90;;;;;;1997417;72;21045;-79
2021/08/09 10:47:01;;;;;;;2.08;0.85;;;25.10;99.90;;;;;;1997503;72;21021;-79
2021/08/09 10:49:27;;;;;;;2.30;0.95;;;25.60;99.90;;;;;;1997295;72;21598;-79
2021/08/09 10:51:54;;;;;;;0.75;0.60;;;25.40;99.90;;;;;;1997442;72;21484;-78
2021/08/09 10:54:21;;;;;;;1.47;0.68;;;25.30;99.90;;;;;;1997479;72;21527;-79
2021/08/09 10:56:47;;;;;;;2.20;0.82;;;25.60;99.90;;;;;;1997391;72;21065;-79
2021/08/09 10:59:13;;;;;;;2.20;0.72;;;26.10;99.90;;;;;;1997593;72;21446;-79
2021/08/09 11:01:39;;;;;;;1.70;0.78;;;26.20;99.90;;;;;;1997483;72;21551;-79
2021/08/09 11:04:06;;;;;;;1.05;0.70;;;25.80;99.90;;;;;;1997507;72;21461;-79
2021/08/09 11:06:33;;;;;;;2.10;0.80;;;25.50;99.90;;;;;;1997402;72;21107;-79
2021/08/09 11:08:59;;;;;;;1.80;0.70;;;25.00;99.90;;;;;;1997366;72;21035;-78
2021/08/09 11:11:25;;;;;;;0.80;0.53;;;25.10;99.90;;;;;;1997471;72;21029;-79
2021/08/09 11:13:53;;;;;;;1.20;0.70;;;25.60;99.90;;;;;;1997384;72;21107;-78
2021/08/09 11:16:19;;;;;;;3.15;0.72;;;25.40;99.90;;;;;;1997530;72;21045;-79
2021/08/09 11:18:45;;;;;;;6.65;1.00;;;25.60;99.90;;;;;;1997534;72;21014;-79
2021/08/09 11:21:11;;;;;;;3.12;0.80;;;25.90;99.90;;;;;;1997504;72;21127;-79
2021/08/09 11:23:37;;;;;;;2.00;0.93;;;26.10;99.90;;;;;;1997513;72;21084;-79
2021/08/09 11:26:03;;;;;;;0.93;0.50;;;25.80;99.90;;;;;;1997421;72;21042;-80
2021/08/09 11:28:30;;;;;;;1.85;0.78;;;25.40;99.90;;;;;;1997482;72;21031;-79
2021/08/09 11:30:56;;;;;;;1.12;0.90;;;25.40;99.90;;;;;;1997502;72;21038;-81
2021/08/09 11:33:25;;;;;;;0.93;0.60;;;25.70;99.90;;;;;;1997417;72;21485;-80
2021/08/09 11:35:50;;;;;;;2.33;0.90;;;25.60;99.90;;;;;;1997367;72;21056;-81
2021/08/09 11:38:17;;;;;;;3.30;1.00;;;26.20;99.90;;;;;;1997622;72;21046;-80
2021/08/09 11:40:43;;;;;;;0.70;0.62;;;26.70;99.90;;;;;;1997483;72;21112;-79
2021/08/09 11:43:09;;;;;;;1.25;0.85;;;26.70;99.90;;;;;;1997692;72;21038;-78
2021/08/09 11:45:35;;;;;;;0.60;0.60;;;26.00;99.90;;;;;;1997290;72;21104;-79
2021/08/09 11:48:01;;;;;;;2.75;0.98;;;26.00;99.90;;;;;;1997518;72;21107;-79
2021/08/09 11:50:27;;;;;;;1.15;0.78;;;26.20;99.90;;;;;;1997329;72;21075;-79
2021/08/09 11:52:53;;;;;;;3.87;2.10;;;26.40;99.70;;;;;;1997517;72;21111;-79
2021/08/09 11:55:20;;;;;;;1.47;0.82;;;26.30;99.90;;;;;;1997287;72;21111;-79
2021/08/09 11:57:46;;;;;;;1.57;0.88;;;25.90;99.90;;;;;;1997499;72;21059;-78
2021/08/09 12:00:12;;;;;;;1.25;0.65;;;25.90;99.90;;;;;;1997410;72;21042;-79
2021/08/09 12:02:38;;;;;;;1.55;0.98;;;25.70;99.90;;;;;;1995032;72;21029;-78
2021/08/09 12:05:04;;;;;;;2.27;1.80;;;26.40;99.90;;;;;;1996618;72;21049;-77
2021/08/09 12:07:30;;;;;;;4.22;3.33;;;27.00;98.70;;;;;;1993022;72;21131;-79
2021/08/09 12:09:56;;;;;;;2.05;0.90;;;27.00;98.60;;;;;;1994941;71;21138;-78
2021/08/09 12:12:23;;;;;;;5.87;2.72;;;26.90;99.50;;;;;;1997475;72;21014;-79
2021/08/09 12:14:49;;;;;;;1.05;0.80;;;26.90;99.00;;;;;;1997147;72;21021;-79
2021/08/09 12:17:16;;;;;;;1.80;1.25;;;26.70;98.70;;;;;;1997398;72;21030;-79
2021/08/09 12:19:42;;;;;;;2.98;0.93;;;26.50;99.20;;;;;;1997171;72;21458;-79
2021/08/09 12:22:08;;;;;;;1.20;0.80;;;26.20;99.80;;;;;;1997526;72;21504;-80
2021/08/09 12:24:34;;;;;;;3.33;1.00;;;25.70;99.90;;;;;;1997210;72;21460;-80
2021/08/09 12:27:00;;;;;;;2.25;1.57;;;25.70;99.90;;;;;;1997448;72;21030;-79
2021/08/09 12:29:26;;;;;;;10.32;7.83;;;26.20;99.30;;;;;;1997245;72;21029;-80
2021/08/09 12:31:52;;;;;;;10.32;7.60;;;26.80;98.10;;;;;;1997352;72;21030;-80
2021/08/09 12:34:18;;;;;;;6.00;1.37;;;27.20;98.00;;;;;;1997172;72;21011;-80
2021/08/09 12:36:45;;;;;;;3.00;2.33;;;27.70;96.30;;;;;;1997394;72;21025;-80
2021/08/09 12:39:11;;;;;;;4.35;1.50;;;27.90;98.80;;;;;;1997222;72;21113;-80
2021/08/09 12:41:37;;;;;;;1.62;0.80;;;27.60;98.10;;;;;;1997383;72;21038;-80